createdAt,value
2022-08-26T00:00:07.182Z,15.61
2022-08-26T00:01:07.190Z,15.61
2022-08-26T00:02:07.366Z,15.17
2022-08-26T00:03:07.419Z,15.17
2022-08-26T00:04:07.209Z,15.06
2022-08-26T00:05:07.191Z,15.17
2022-08-26T00:06:07.179Z,15.06
2022-08-26T00:07:07.190Z,15.06
2022-08-26T00:08:07.184Z,15.17
2022-08-26T00:09:07.665Z,14.44
2022-08-26T00:10:07.179Z,14.61
2022-08-26T00:11:07.188Z,15.17
2022-08-26T00:12:07.184Z,15.06
2022-08-26T00:13:07.329Z,14.89
2022-08-26T00:14:07.192Z,15.17
2022-08-26T00:15:07.186Z,15.06
2022-08-26T00:16:07.205Z,15.17
2022-08-26T00:17:08.291Z,15.44
2022-08-26T00:18:16.930Z,15.17
2022-08-26T00:19:07.190Z,15.28
2022-08-26T00:20:07.185Z,15.61
2022-08-26T00:21:07.192Z,15.17
2022-08-26T00:22:07.199Z,15.61
2022-08-26T00:23:07.377Z,15.28
2022-08-26T00:24:07.191Z,15.61
2022-08-26T00:25:07.186Z,15.61
2022-08-26T00:26:08.279Z,15.61
2022-08-26T00:27:07.193Z,15.44
2022-08-26T00:28:07.192Z,15.28
2022-08-26T00:29:07.186Z,15.44
2022-08-26T00:30:07.194Z,15.61
2022-08-26T00:31:07.204Z,15.44
2022-08-26T00:32:07.230Z,15.44
2022-08-26T00:33:07.444Z,15.61
2022-08-26T00:34:07.198Z,15.44
2022-08-26T00:35:07.201Z,15.17
2022-08-26T00:36:07.205Z,15.06
2022-08-26T00:37:09.103Z,15.17
2022-08-26T00:38:07.207Z,15.06
2022-08-26T00:39:07.198Z,14.89
2022-08-26T00:40:07.249Z,14.78
2022-08-26T00:41:07.204Z,14.78
2022-08-26T00:42:07.210Z,14.78
2022-08-26T00:43:09.530Z,14.78
2022-08-26T00:44:07.220Z,14.61
2022-08-26T00:45:10.179Z,14.61
2022-08-26T00:46:07.277Z,14.78
2022-08-26T00:47:07.216Z,14.61
2022-08-26T00:48:07.214Z,14.28
2022-08-26T00:49:11.605Z,14.61
2022-08-26T00:50:07.224Z,14.61
2022-08-26T00:51:07.217Z,14.61
2022-08-26T00:52:09.770Z,14.28
2022-08-26T00:53:07.354Z,14.44
2022-08-26T00:54:07.216Z,14.44
2022-08-26T00:55:07.229Z,14.28
2022-08-26T00:56:07.211Z,14.44
2022-08-26T00:57:08.626Z,14.44
2022-08-26T00:58:07.219Z,14.44
2022-08-26T00:59:07.224Z,14.78
2022-08-26T01:00:07.225Z,14.61
2022-08-26T01:01:07.308Z,14.61
2022-08-26T01:02:07.257Z,14.78
2022-08-26T01:03:07.525Z,14.61
2022-08-26T01:04:07.229Z,14.78
2022-08-26T01:05:07.224Z,14.61
2022-08-26T01:06:12.424Z,14.78
2022-08-26T01:07:07.227Z,14.78
2022-08-26T01:08:07.241Z,14.61
2022-08-26T01:09:07.231Z,14.44
2022-08-26T01:10:07.232Z,14.78
2022-08-26T01:11:07.233Z,14.61
2022-08-26T01:12:07.237Z,14.78
2022-08-26T01:13:07.337Z,14.44
2022-08-26T01:14:07.237Z,14.61
2022-08-26T01:15:07.238Z,14.61
2022-08-26T01:16:07.279Z,14.78
2022-08-26T01:17:07.300Z,14.78
2022-08-26T01:18:07.237Z,14.78
2022-08-26T01:19:07.236Z,14.78
2022-08-26T01:20:07.241Z,14.78
2022-08-26T01:21:07.231Z,14.78
2022-08-26T01:22:07.241Z,14.78
2022-08-26T01:23:08.544Z,14.44
2022-08-26T01:24:07.238Z,14.78
2022-08-26T01:25:07.239Z,14.44
2022-08-26T01:26:07.243Z,14.28
2022-08-26T01:27:07.243Z,14.28
2022-08-26T01:28:07.246Z,14.28
2022-08-26T01:29:07.245Z,14.28
2022-08-26T01:30:07.242Z,14.28
2022-08-26T01:31:07.252Z,14.28
2022-08-26T01:32:07.247Z,14.61
2022-08-26T01:33:07.337Z,14.28
2022-08-26T01:34:07.247Z,14.44
2022-08-26T01:35:07.249Z,14.28
2022-08-26T01:36:07.257Z,14.61
2022-08-26T01:37:07.253Z,14.44
2022-08-26T01:38:07.257Z,14.28
2022-08-26T01:39:07.398Z,14.11
2022-08-26T01:40:07.281Z,14.44
2022-08-26T01:41:11.672Z,14.78
2022-08-26T01:42:10.215Z,14.78
2022-08-26T01:43:07.373Z,14.61
2022-08-26T01:44:07.260Z,14.44
2022-08-26T01:45:07.258Z,14.61
2022-08-26T01:46:07.342Z,14.44
2022-08-26T01:47:07.253Z,14.44
2022-08-26T01:48:07.270Z,14.61
2022-08-26T01:49:07.761Z,14.78
2022-08-26T01:50:07.261Z,14.78
2022-08-26T01:51:07.255Z,14.61
2022-08-26T01:52:07.262Z,14.61
2022-08-26T01:53:07.613Z,14.78
2022-08-26T01:54:07.258Z,14.78
2022-08-26T01:55:07.265Z,14.78
2022-08-26T01:56:07.265Z,14.89
2022-08-26T01:57:07.265Z,14.78
2022-08-26T01:58:07.270Z,14.78
2022-08-26T01:59:07.263Z,14.28
2022-08-26T02:00:07.264Z,14.44
2022-08-26T02:01:07.284Z,14.28
2022-08-26T02:02:07.275Z,14.61
2022-08-26T02:03:07.388Z,14.61
2022-08-26T02:04:07.300Z,14.78
2022-08-26T02:05:07.268Z,14.61
2022-08-26T02:06:09.262Z,14.78
2022-08-26T02:07:07.266Z,14.78
2022-08-26T02:08:07.283Z,14.44
2022-08-26T02:09:07.265Z,14.28
2022-08-26T02:10:07.268Z,14.28
2022-08-26T02:11:07.278Z,14.28
2022-08-26T02:12:07.273Z,14.44
2022-08-26T02:13:07.345Z,14.28
2022-08-26T02:14:07.281Z,14.78
2022-08-26T02:15:07.275Z,14.61
2022-08-26T02:16:07.872Z,14.44
2022-08-26T02:17:07.278Z,14.11
2022-08-26T02:18:07.274Z,14.61
2022-08-26T02:19:07.274Z,14.28
2022-08-26T02:20:07.274Z,14.44
2022-08-26T02:21:07.286Z,14.11
2022-08-26T02:22:07.270Z,14.61
2022-08-26T02:23:07.457Z,14.11
2022-08-26T02:24:07.279Z,14.28
2022-08-26T02:25:07.272Z,14
2022-08-26T02:26:07.283Z,14.11
2022-08-26T02:27:07.285Z,14
2022-08-26T02:28:07.277Z,14
2022-08-26T02:29:07.538Z,14
2022-08-26T02:30:07.275Z,13.83
2022-08-26T02:31:07.324Z,13.56
2022-08-26T02:32:07.286Z,13.56
2022-08-26T02:33:07.389Z,13.83
2022-08-26T02:34:07.280Z,13.83
2022-08-26T02:35:07.284Z,13.67
2022-08-26T02:36:07.350Z,14
2022-08-26T02:37:07.291Z,13.83
2022-08-26T02:38:09.977Z,14.28
2022-08-26T02:39:07.292Z,14.28
2022-08-26T02:40:07.398Z,14.28
2022-08-26T02:41:08.031Z,14.11
2022-08-26T02:42:07.289Z,14.11
2022-08-26T02:43:08.511Z,13.83
2022-08-26T02:44:07.292Z,13.83
2022-08-26T02:45:07.292Z,13.83
2022-08-26T02:46:07.280Z,13.83
2022-08-26T02:47:07.328Z,13.56
2022-08-26T02:48:07.295Z,13.83
2022-08-26T02:49:07.301Z,13.83
2022-08-26T02:50:07.291Z,13.83
2022-08-26T02:51:07.296Z,13.56
2022-08-26T02:52:07.302Z,13.83
2022-08-26T02:53:07.464Z,13.83
2022-08-26T02:54:07.290Z,13.67
2022-08-26T02:55:07.293Z,13.67
2022-08-26T02:56:07.296Z,13.83
2022-08-26T02:57:07.296Z,13.67
2022-08-26T02:58:07.285Z,13.83
2022-08-26T02:59:07.290Z,13.83
2022-08-26T03:00:07.307Z,13.67
2022-08-26T03:01:07.458Z,13.67
2022-08-26T03:02:07.402Z,13.83
2022-08-26T03:03:07.477Z,13.83
2022-08-26T03:04:07.286Z,13.56
2022-08-26T03:05:07.302Z,13.56
2022-08-26T03:06:07.298Z,13.22
2022-08-26T03:07:07.304Z,13.56
2022-08-26T03:08:07.298Z,13.39
2022-08-26T03:09:07.306Z,13.39
2022-08-26T03:10:08.414Z,13.39
2022-08-26T03:11:07.299Z,13.39
2022-08-26T03:12:07.298Z,13.39
2022-08-26T03:13:07.552Z,13.56
2022-08-26T03:14:07.298Z,13.67
2022-08-26T03:15:17.758Z,13.39
2022-08-26T03:16:07.339Z,13.67
2022-08-26T03:17:07.301Z,13.22
2022-08-26T03:18:07.309Z,13.83
2022-08-26T03:19:07.311Z,13.83
2022-08-26T03:20:07.309Z,13.83
2022-08-26T03:21:07.308Z,13.83
2022-08-26T03:22:07.307Z,13.83
2022-08-26T03:23:07.344Z,13.67
2022-08-26T03:24:07.299Z,13.83
2022-08-26T03:25:07.303Z,13.39
2022-08-26T03:26:07.314Z,13.39
2022-08-26T03:27:07.522Z,13.56
2022-08-26T03:28:07.751Z,13.39
2022-08-26T03:29:07.301Z,13.39
2022-08-26T03:30:07.309Z,13.22
2022-08-26T03:31:07.337Z,13.39
2022-08-26T03:32:07.304Z,13.22
2022-08-26T03:33:07.449Z,13.22
2022-08-26T03:34:07.309Z,12.94
2022-08-26T03:35:07.304Z,13.83
2022-08-26T03:36:07.310Z,13.22
2022-08-26T03:37:07.303Z,13.39
2022-08-26T03:38:07.304Z,13.39
2022-08-26T03:39:07.307Z,13.56
2022-08-26T03:40:07.408Z,13.39
2022-08-26T03:41:07.301Z,13.56
2022-08-26T03:42:07.309Z,13.56
2022-08-26T03:43:07.422Z,13.22
2022-08-26T03:44:07.303Z,13.39
2022-08-26T03:45:07.310Z,13.39
2022-08-26T03:46:07.356Z,13.39
2022-08-26T03:47:07.303Z,13.39
2022-08-26T03:48:07.300Z,13.56
2022-08-26T03:49:07.311Z,13.22
2022-08-26T03:50:07.305Z,13.56
2022-08-26T03:51:07.304Z,13.39
2022-08-26T03:52:07.305Z,13.22
2022-08-26T03:53:07.683Z,13.11
2022-08-26T03:54:08.246Z,13.11
2022-08-26T03:55:07.309Z,12.94
2022-08-26T03:56:07.310Z,12.61
2022-08-26T03:57:07.301Z,12.5
2022-08-26T03:58:07.314Z,12.94
2022-08-26T03:59:07.479Z,12.61
2022-08-26T04:00:07.306Z,12.61
2022-08-26T04:01:07.318Z,12.33
2022-08-26T04:02:08.571Z,12.94
2022-08-26T04:03:09.838Z,12.78
2022-08-26T04:04:07.307Z,12.61
2022-08-26T04:05:07.312Z,12.33
2022-08-26T04:06:07.312Z,12.5
2022-08-26T04:07:07.303Z,12.33
2022-08-26T04:08:07.313Z,12.33
2022-08-26T04:09:07.317Z,12
2022-08-26T04:10:07.310Z,12.5
2022-08-26T04:11:07.321Z,12.5
2022-08-26T04:12:07.313Z,12.5
2022-08-26T04:13:07.588Z,12.5
2022-08-26T04:14:07.318Z,12.5
2022-08-26T04:15:07.307Z,12.78
2022-08-26T04:16:07.337Z,12.61
2022-08-26T04:17:07.315Z,12.94
2022-08-26T04:18:07.321Z,12.5
2022-08-26T04:19:07.321Z,12.78
2022-08-26T04:20:07.313Z,12.5
2022-08-26T04:21:07.943Z,12.5
2022-08-26T04:22:07.325Z,12.33
2022-08-26T04:23:07.459Z,12.5
2022-08-26T04:24:10.269Z,12.5
2022-08-26T04:25:07.327Z,12.33
2022-08-26T04:26:07.320Z,12.61
2022-08-26T04:27:07.323Z,12.5
2022-08-26T04:28:07.325Z,12.61
2022-08-26T04:29:07.329Z,12.61
2022-08-26T04:30:07.327Z,12.33
2022-08-26T04:31:07.359Z,12.61
2022-08-26T04:32:07.328Z,12.78
2022-08-26T04:33:11.646Z,12.5
2022-08-26T04:34:07.330Z,12.94
2022-08-26T04:35:07.324Z,12.94
2022-08-26T04:36:07.326Z,12.61
2022-08-26T04:37:07.325Z,12.94
2022-08-26T04:38:07.325Z,12.78
2022-08-26T04:39:07.323Z,12.94
2022-08-26T04:40:07.340Z,12.94
2022-08-26T04:41:07.342Z,12.94
2022-08-26T04:42:07.330Z,12.78
2022-08-26T04:43:07.429Z,12.94
2022-08-26T04:44:07.334Z,12.94
2022-08-26T04:45:10.092Z,12.61
2022-08-26T04:46:07.401Z,12.61
2022-08-26T04:47:07.339Z,13.11
2022-08-26T04:48:07.333Z,13.22
2022-08-26T04:49:07.326Z,13.39
2022-08-26T04:50:07.584Z,13.33
2022-08-26T04:51:07.335Z,13.33
2022-08-26T04:52:07.332Z,13.11
2022-08-26T04:53:07.452Z,13.11
2022-08-26T04:54:07.360Z,13.39
2022-08-26T04:55:08.345Z,13.28
2022-08-26T04:56:07.332Z,13.28
2022-08-26T04:57:07.330Z,13.11
2022-08-26T04:58:07.337Z,12.89
2022-08-26T04:59:07.335Z,13.28
2022-08-26T05:00:07.339Z,13.06
2022-08-26T05:01:07.343Z,13.06
2022-08-26T05:02:07.378Z,12.78
2022-08-26T05:03:07.465Z,12.78
2022-08-26T05:04:08.039Z,12.72
2022-08-26T05:05:07.334Z,12.94
2022-08-26T05:06:07.342Z,12.89
2022-08-26T05:07:07.344Z,12.72
2022-08-26T05:08:07.340Z,12.72
2022-08-26T05:09:07.336Z,13
2022-08-26T05:10:08.707Z,12.56
2022-08-26T05:11:07.336Z,12.56
2022-08-26T05:12:07.343Z,12.72
2022-08-26T05:13:10.770Z,12.67
2022-08-26T05:14:07.332Z,12.72
2022-08-26T05:15:07.345Z,12.72
2022-08-26T05:16:07.399Z,13.11
2022-08-26T05:17:07.350Z,13.11
2022-08-26T05:18:07.358Z,13.06
2022-08-26T05:19:07.350Z,13.06
2022-08-26T05:20:07.342Z,13.06
2022-08-26T05:21:07.360Z,13.06
2022-08-26T05:22:07.353Z,13.17
2022-08-26T05:23:07.481Z,13.33
2022-08-26T05:24:07.342Z,13.33
2022-08-26T05:25:07.341Z,13.5
2022-08-26T05:26:07.347Z,13.33
2022-08-26T05:27:07.539Z,13.5
2022-08-26T05:28:07.350Z,13.67
2022-08-26T05:29:07.346Z,13.67
2022-08-26T05:30:07.345Z,13.67
2022-08-26T05:31:07.416Z,13.5
2022-08-26T05:32:07.360Z,13.67
2022-08-26T05:33:07.419Z,13.78
2022-08-26T05:34:07.346Z,14.06
2022-08-26T05:35:07.742Z,13.94
2022-08-26T05:36:07.354Z,14.56
2022-08-26T05:37:07.350Z,14.56
2022-08-26T05:38:11.883Z,14.39
2022-08-26T05:39:07.348Z,14.39
2022-08-26T05:40:07.448Z,14.89
2022-08-26T05:41:07.348Z,15
2022-08-26T05:42:07.354Z,15
2022-08-26T05:43:07.445Z,15
2022-08-26T05:44:07.350Z,15
2022-08-26T05:45:07.359Z,15
2022-08-26T05:46:07.446Z,14.67
2022-08-26T05:47:07.360Z,15
2022-08-26T05:48:07.359Z,15
2022-08-26T05:49:12.395Z,15.17
2022-08-26T05:50:07.359Z,15
2022-08-26T05:51:07.369Z,15
2022-08-26T05:52:07.358Z,15.17
2022-08-26T05:53:07.537Z,15
2022-08-26T05:54:07.361Z,15
2022-08-26T05:55:07.375Z,14.89
2022-08-26T05:56:07.370Z,15
2022-08-26T05:57:07.368Z,15
2022-08-26T05:58:07.379Z,15
2022-08-26T05:59:10.936Z,14.89
2022-08-26T06:00:07.372Z,15
2022-08-26T06:01:07.379Z,15.06
2022-08-26T06:02:07.375Z,15
2022-08-26T06:03:07.496Z,15.22
2022-08-26T06:04:07.377Z,15.22
2022-08-26T06:05:07.577Z,15.39
2022-08-26T06:06:07.381Z,15
2022-08-26T06:07:07.460Z,15
2022-08-26T06:08:07.377Z,15
2022-08-26T06:09:09.428Z,15.39
2022-08-26T06:10:30.806Z,15.22
2022-08-26T06:11:07.383Z,15
2022-08-26T06:12:07.379Z,15.17
2022-08-26T06:13:09.153Z,15.39
2022-08-26T06:14:07.379Z,15
2022-08-26T06:15:07.389Z,15.17
2022-08-26T06:16:07.432Z,15.17
2022-08-26T06:17:07.389Z,15.17
2022-08-26T06:18:07.394Z,15.17
2022-08-26T06:19:10.330Z,15.17
2022-08-26T06:20:07.390Z,15.22
2022-08-26T06:21:07.395Z,15.56
2022-08-26T06:22:07.406Z,15.72
2022-08-26T06:23:07.542Z,16.39
2022-08-26T06:24:07.411Z,16.83
2022-08-26T06:25:07.402Z,17.28
2022-08-26T06:26:07.407Z,17.17
2022-08-26T06:27:07.398Z,17.28
2022-08-26T06:28:07.402Z,17.17
2022-08-26T06:29:07.406Z,16.83
2022-08-26T06:30:07.411Z,16.83
2022-08-26T06:31:07.441Z,17.17
2022-08-26T06:32:08.741Z,17.28
2022-08-26T06:33:07.613Z,17.61
2022-08-26T06:34:10.671Z,17.17
2022-08-26T06:35:07.408Z,17.61
2022-08-26T06:36:07.413Z,17.78
2022-08-26T06:37:07.422Z,17.78
2022-08-26T06:38:07.415Z,18.89
2022-08-26T06:39:07.409Z,19.72
2022-08-26T06:40:07.465Z,19.72
2022-08-26T06:41:07.414Z,19.06
2022-08-26T06:42:07.418Z,18.78
2022-08-26T06:43:07.555Z,20.22
2022-08-26T06:44:07.425Z,20.72
2022-08-26T06:45:07.426Z,20.22
2022-08-26T06:46:07.468Z,20.22
2022-08-26T06:47:07.421Z,20.22
2022-08-26T06:48:07.435Z,20.72
2022-08-26T06:49:07.429Z,19.28
2022-08-26T06:50:07.427Z,18.89
2022-08-26T06:51:07.428Z,17.94
2022-08-26T06:52:07.427Z,18.78
2022-08-26T06:53:07.575Z,19.56
2022-08-26T06:54:07.429Z,19.39
2022-08-26T06:55:07.426Z,18.89
2022-08-26T06:56:07.433Z,18.56
2022-08-26T06:57:07.428Z,20.33
2022-08-26T06:58:07.434Z,21
2022-08-26T06:59:07.750Z,20.5
2022-08-26T07:00:07.439Z,20.06
2022-08-26T07:01:11.461Z,21.17
2022-08-26T07:02:08.114Z,21.72
2022-08-26T07:03:07.617Z,21.72
2022-08-26T07:04:10.049Z,22.78
2022-08-26T07:05:07.452Z,22.22
2022-08-26T07:06:07.449Z,21.5
2022-08-26T07:07:07.458Z,21.72
2022-08-26T07:08:07.456Z,20.22
2022-08-26T07:09:07.452Z,21
2022-08-26T07:10:07.457Z,20.72
2022-08-26T07:11:07.470Z,20.72
2022-08-26T07:12:07.461Z,20.33
2022-08-26T07:13:07.621Z,21.17
2022-08-26T07:14:07.459Z,21.5
2022-08-26T07:15:07.464Z,22.22
2022-08-26T07:16:07.539Z,21.17
2022-08-26T07:17:10.102Z,19.56
2022-08-26T07:18:07.463Z,20.22
2022-08-26T07:19:10.746Z,20.33
2022-08-26T07:20:07.461Z,20.72
2022-08-26T07:21:07.462Z,19.94
2022-08-26T07:22:07.460Z,19.72
2022-08-26T07:23:07.603Z,19.28
2022-08-26T07:24:07.464Z,19.72
2022-08-26T07:25:07.477Z,20.06
2022-08-26T07:26:07.475Z,20.72
2022-08-26T07:27:07.472Z,19.72
2022-08-26T07:28:07.477Z,19.28
2022-08-26T07:29:07.476Z,19.44
2022-08-26T07:30:07.479Z,19.28
2022-08-26T07:31:07.581Z,19.78
2022-08-26T07:32:07.481Z,20.17
2022-08-26T07:33:07.535Z,19.94
2022-08-26T07:34:07.490Z,18.94
2022-08-26T07:35:07.476Z,18.94
2022-08-26T07:36:07.475Z,19.06
2022-08-26T07:37:08.659Z,19.56
2022-08-26T07:38:07.490Z,19.94
2022-08-26T07:39:07.483Z,19.94
2022-08-26T07:40:07.511Z,19.56
2022-08-26T07:41:07.492Z,18.94
2022-08-26T07:42:08.262Z,18.94
2022-08-26T07:43:07.611Z,19.44
2022-08-26T07:44:07.492Z,19.44
2022-08-26T07:45:07.494Z,19.44
2022-08-26T07:46:07.496Z,18.78
2022-08-26T07:47:10.359Z,19.06
2022-08-26T07:48:07.502Z,19.06
2022-08-26T07:49:07.559Z,19.28
2022-08-26T07:50:07.498Z,19.28
2022-08-26T07:51:07.507Z,19.44
2022-08-26T07:52:07.512Z,19.28
2022-08-26T07:53:07.671Z,19.28
2022-08-26T07:54:07.517Z,19.44
2022-08-26T07:55:07.497Z,19.44
2022-08-26T07:56:07.513Z,18.94
2022-08-26T07:57:08.418Z,18.94
2022-08-26T07:58:07.507Z,19.44
2022-08-26T07:59:08.641Z,19.56
2022-08-26T08:00:07.518Z,19.56
2022-08-26T08:01:07.538Z,20.22
2022-08-26T08:02:07.525Z,20.83
2022-08-26T08:03:07.645Z,20.72
2022-08-26T08:04:07.517Z,20.22
2022-08-26T08:05:07.559Z,20.33
2022-08-26T08:06:07.523Z,20.56
2022-08-26T08:07:07.587Z,20.83
2022-08-26T08:08:19.714Z,20.33
2022-08-26T08:09:07.525Z,19.94
2022-08-26T08:10:09.858Z,19.94
2022-08-26T08:11:07.527Z,19.94
2022-08-26T08:12:07.524Z,19.56
2022-08-26T08:13:07.726Z,19.78
2022-08-26T08:14:08.354Z,19.78
2022-08-26T08:15:07.524Z,19.44
2022-08-26T08:16:07.531Z,19.44
2022-08-26T08:17:07.607Z,19.44
2022-08-26T08:18:07.534Z,19.28
2022-08-26T08:19:07.527Z,19.44
2022-08-26T08:20:07.532Z,19.78
2022-08-26T08:21:23.570Z,20.33
2022-08-26T08:22:17.682Z,21
2022-08-26T08:23:07.541Z,20.83
2022-08-26T08:24:07.542Z,21
2022-08-26T08:25:08.199Z,21.56
2022-08-26T08:26:08.270Z,22.22
2022-08-26T08:27:07.552Z,22.06
2022-08-26T08:28:07.694Z,22.39
2022-08-26T08:29:07.549Z,21.56
2022-08-26T08:30:07.562Z,21.72
2022-08-26T08:31:07.604Z,22.56
2022-08-26T08:32:11.516Z,22.39
2022-08-26T08:33:07.549Z,23.44
2022-08-26T08:34:07.569Z,23.44
2022-08-26T08:35:11.020Z,22.39
2022-08-26T08:36:07.561Z,21.89
2022-08-26T08:37:10.593Z,21.39
2022-08-26T08:38:07.694Z,21.39
2022-08-26T08:39:07.558Z,22.56
2022-08-26T08:40:07.614Z,22.94
2022-08-26T08:41:07.560Z,22.06
2022-08-26T08:42:07.571Z,22.94
2022-08-26T08:43:07.774Z,22.94
2022-08-26T08:44:07.568Z,22.94
2022-08-26T08:45:07.567Z,22.78
2022-08-26T08:46:07.610Z,23.44
2022-08-26T08:47:07.569Z,23.44
2022-08-26T08:48:07.680Z,23.83
2022-08-26T08:49:07.573Z,24.56
2022-08-26T08:50:07.566Z,24
2022-08-26T08:51:07.579Z,23.83
2022-08-26T08:52:07.576Z,22.78
2022-08-26T08:53:08.989Z,22.56
2022-08-26T08:54:07.579Z,23.28
2022-08-26T08:55:10.444Z,22.78
2022-08-26T08:56:07.581Z,23.11
2022-08-26T08:57:07.574Z,23.28
2022-08-26T08:58:07.990Z,23.83
2022-08-26T08:59:07.581Z,24.17
2022-08-26T09:00:07.575Z,24
2022-08-26T09:01:07.605Z,23.44
2022-08-26T09:02:07.613Z,22.94
2022-08-26T09:03:07.586Z,22.78
2022-08-26T09:04:07.584Z,22.94
2022-08-26T09:05:07.715Z,23.44
2022-08-26T09:06:07.588Z,22.56
2022-08-26T09:07:07.585Z,22.39
2022-08-26T09:08:07.631Z,21.89
2022-08-26T09:09:07.586Z,21.89
2022-08-26T09:10:07.584Z,22.39
2022-08-26T09:11:07.601Z,22.39
2022-08-26T09:12:07.595Z,22.78
2022-08-26T09:13:07.591Z,23.44
2022-08-26T09:14:07.594Z,24
2022-08-26T09:15:07.623Z,24.39
2022-08-26T09:16:07.588Z,24.56
2022-08-26T09:17:07.780Z,24.17
2022-08-26T09:18:07.730Z,23.44
2022-08-26T09:19:07.601Z,23.67
2022-08-26T09:20:07.594Z,24
2022-08-26T09:21:07.597Z,24
2022-08-26T09:22:09.465Z,23.83
2022-08-26T09:23:07.707Z,23.28
2022-08-26T09:24:07.600Z,23.06
2022-08-26T09:25:07.592Z,22.94
2022-08-26T09:26:07.605Z,22.94
2022-08-26T09:27:07.610Z,23.67
2022-08-26T09:28:07.736Z,24.17
2022-08-26T09:29:07.658Z,24.5
2022-08-26T09:30:07.597Z,24.67
2022-08-26T09:31:11.129Z,24.89
2022-08-26T09:32:07.608Z,24.5
2022-08-26T09:33:10.383Z,24.17
2022-08-26T09:34:07.603Z,23.28
2022-08-26T09:35:07.604Z,23.11
2022-08-26T09:36:07.628Z,23.67
2022-08-26T09:37:07.607Z,24
2022-08-26T09:38:10.406Z,24.67
2022-08-26T09:39:07.603Z,25.22
2022-08-26T09:40:07.701Z,25.22
2022-08-26T09:41:07.614Z,25.78
2022-08-26T09:42:07.615Z,25.44
2022-08-26T09:43:07.601Z,25.78
2022-08-26T09:44:07.604Z,25.44
2022-08-26T09:45:07.611Z,25.22
2022-08-26T09:46:07.644Z,25.44
2022-08-26T09:47:07.615Z,25.44
2022-08-26T09:48:07.901Z,25.22
2022-08-26T09:49:07.611Z,25.44
2022-08-26T09:50:09.481Z,25.22
2022-08-26T09:51:07.738Z,25.78
2022-08-26T09:52:07.612Z,25.06
2022-08-26T09:53:09.599Z,25.61
2022-08-26T09:54:08.048Z,25.22
2022-08-26T09:55:07.617Z,25.78
2022-08-26T09:56:07.622Z,25.44
2022-08-26T09:57:07.619Z,24.89
2022-08-26T09:58:07.839Z,24.89
2022-08-26T09:59:07.622Z,25.22
2022-08-26T10:00:07.616Z,25.44
2022-08-26T10:01:07.663Z,25.78
2022-08-26T10:02:07.664Z,25.44
2022-08-26T10:03:07.695Z,25.06
2022-08-26T10:04:07.685Z,25.06
2022-08-26T10:05:09.034Z,24.67
2022-08-26T10:06:07.687Z,24.67
2022-08-26T10:07:07.630Z,24.89
2022-08-26T10:08:07.623Z,25.22
2022-08-26T10:09:09.756Z,25.06
2022-08-26T10:10:07.624Z,24.33
2022-08-26T10:11:07.622Z,25.61
2022-08-26T10:12:07.620Z,25.78
2022-08-26T10:13:07.799Z,24.67
2022-08-26T10:14:07.625Z,24.17
2022-08-26T10:15:07.619Z,24.89
2022-08-26T10:16:07.794Z,24.5
2022-08-26T10:17:07.617Z,24.89
2022-08-26T10:18:07.775Z,24.67
2022-08-26T10:19:07.626Z,24.5
2022-08-26T10:20:09.838Z,24.67
2022-08-26T10:21:07.620Z,25.22
2022-08-26T10:22:07.635Z,25.06
2022-08-26T10:23:07.812Z,25.06
2022-08-26T10:24:07.624Z,25.06
2022-08-26T10:25:07.623Z,25.06
2022-08-26T10:26:07.625Z,25.61
2022-08-26T10:27:07.633Z,25.06
2022-08-26T10:28:07.758Z,25.06
2022-08-26T10:29:07.624Z,24.89
2022-08-26T10:30:07.636Z,25.22
2022-08-26T10:31:07.642Z,25.61
2022-08-26T10:32:07.680Z,25.78
2022-08-26T10:33:07.910Z,25.78
2022-08-26T10:34:07.637Z,25.78
2022-08-26T10:35:07.630Z,25.78
2022-08-26T10:36:07.635Z,25.78
2022-08-26T10:37:10.898Z,26.33
2022-08-26T10:38:07.772Z,26.56
2022-08-26T10:39:07.632Z,26.94
2022-08-26T10:40:07.738Z,26.89
2022-08-26T10:41:09.858Z,26.94
2022-08-26T10:42:07.642Z,26.89
2022-08-26T10:43:10.939Z,26.89
2022-08-26T10:44:07.635Z,26.89
2022-08-26T10:45:07.693Z,25.44
2022-08-26T10:46:07.687Z,25.78
2022-08-26T10:47:07.663Z,25.78
2022-08-26T10:48:07.769Z,25.78
2022-08-26T10:49:07.650Z,26.33
2022-08-26T10:50:07.656Z,26.33
2022-08-26T10:51:08.656Z,26.89
2022-08-26T10:52:12.160Z,26.89
2022-08-26T10:53:07.669Z,26.33
2022-08-26T10:54:07.659Z,26.33
2022-08-26T10:55:08.408Z,26.89
2022-08-26T10:56:15.981Z,26.94
2022-08-26T10:57:09.706Z,26.89
2022-08-26T10:58:09.140Z,27.17
2022-08-26T10:59:10.324Z,27.44
2022-08-26T11:00:07.655Z,27.44
2022-08-26T11:01:10.095Z,28
2022-08-26T11:02:07.660Z,28
2022-08-26T11:03:09.482Z,28.17
2022-08-26T11:04:07.722Z,28.61
2022-08-26T11:05:07.664Z,28
2022-08-26T11:06:07.666Z,28
2022-08-26T11:07:07.663Z,27.56
2022-08-26T11:08:07.780Z,27.44
2022-08-26T11:09:07.668Z,26.89
2022-08-26T11:10:07.675Z,26.94
2022-08-26T11:11:07.668Z,27.44
2022-08-26T11:12:10.138Z,26.72
2022-08-26T11:13:07.745Z,26.33
2022-08-26T11:14:07.674Z,27.44
2022-08-26T11:15:07.674Z,28
2022-08-26T11:16:07.721Z,28.72
2022-08-26T11:17:07.682Z,29.17
2022-08-26T11:18:07.762Z,28.72
2022-08-26T11:19:07.672Z,28.06
2022-08-26T11:20:13.288Z,28.72
2022-08-26T11:21:10.286Z,28.61
2022-08-26T11:22:07.685Z,28.33
2022-08-26T11:23:07.676Z,28.33
2022-08-26T11:24:07.684Z,28.11
2022-08-26T11:25:07.683Z,27.39
2022-08-26T11:26:07.684Z,27.72
2022-08-26T11:27:07.688Z,28.56
2022-08-26T11:28:07.690Z,29.33
2022-08-26T11:29:12.174Z,29.72
2022-08-26T11:30:07.732Z,30.33
2022-08-26T11:31:07.702Z,29.33
2022-08-26T11:32:07.693Z,28.56
2022-08-26T11:33:07.950Z,28.11
2022-08-26T11:34:08.657Z,26.94
2022-08-26T11:35:07.691Z,26.56
2022-08-26T11:36:12.163Z,26
2022-08-26T11:37:07.736Z,26.56
2022-08-26T11:38:07.834Z,26.56
2022-08-26T11:39:07.694Z,26.56
2022-08-26T11:40:07.727Z,26.72
2022-08-26T11:41:07.690Z,26.94
2022-08-26T11:42:07.702Z,27.5
2022-08-26T11:43:07.697Z,27.17
2022-08-26T11:44:07.700Z,26.94
2022-08-26T11:45:07.700Z,28.11
2022-08-26T11:46:07.759Z,28.33
2022-08-26T11:47:07.706Z,27.94
2022-08-26T11:48:07.818Z,27.72
2022-08-26T11:49:07.715Z,27.94
2022-08-26T11:50:07.713Z,27.5
2022-08-26T11:51:07.714Z,27.94
2022-08-26T11:52:07.705Z,27.94
2022-08-26T11:53:07.859Z,27.72
2022-08-26T11:54:07.719Z,28.11
2022-08-26T11:55:07.723Z,27.5
2022-08-26T11:56:07.715Z,27.39
2022-08-26T11:57:09.588Z,26.94
2022-08-26T11:58:07.857Z,26.94
2022-08-26T11:59:07.717Z,26.89
2022-08-26T12:00:09.470Z,26.72
2022-08-26T12:01:09.696Z,26.89
2022-08-26T12:02:07.719Z,26.94
2022-08-26T12:03:07.916Z,26.89
2022-08-26T12:04:07.829Z,26.94
2022-08-26T12:05:07.721Z,27.17
2022-08-26T12:06:07.722Z,26.94
2022-08-26T12:07:08.598Z,26.94
2022-08-26T12:08:07.926Z,27.5
2022-08-26T12:09:07.787Z,28.33
2022-08-26T12:10:07.713Z,28.11
2022-08-26T12:11:07.725Z,28.56
2022-08-26T12:12:07.726Z,28.11
2022-08-26T12:13:07.729Z,27.72
2022-08-26T12:14:07.724Z,28.11
2022-08-26T12:15:07.723Z,28.72
2022-08-26T12:16:07.821Z,28.72
2022-08-26T12:17:07.728Z,29.5
2022-08-26T12:18:07.868Z,30.17
2022-08-26T12:19:07.808Z,29.94
2022-08-26T12:20:07.733Z,29.5
2022-08-26T12:21:07.730Z,29.33
2022-08-26T12:22:07.741Z,28.56
2022-08-26T12:23:07.736Z,27.5
2022-08-26T12:24:07.725Z,28.11
2022-08-26T12:25:07.741Z,28.56
2022-08-26T12:26:07.739Z,27.94
2022-08-26T12:27:07.737Z,28.11
2022-08-26T12:28:07.918Z,27.94
2022-08-26T12:29:10.807Z,28
2022-08-26T12:30:08.323Z,27.94
2022-08-26T12:31:07.755Z,28.56
2022-08-26T12:32:07.748Z,28.89
2022-08-26T12:33:08.082Z,28.33
2022-08-26T12:34:07.750Z,28.56
2022-08-26T12:35:07.780Z,28.67
2022-08-26T12:36:07.756Z,28.33
2022-08-26T12:37:07.755Z,28.89
2022-08-26T12:38:07.883Z,29.5
2022-08-26T12:39:07.758Z,27.94
2022-08-26T12:40:07.789Z,27.39
2022-08-26T12:41:07.756Z,28.33
2022-08-26T12:42:07.761Z,27.5
2022-08-26T12:43:07.762Z,27.5
2022-08-26T12:44:07.760Z,27.72
2022-08-26T12:45:07.764Z,27.72
2022-08-26T12:46:07.791Z,28.33
2022-08-26T12:47:07.764Z,28.11
2022-08-26T12:48:07.959Z,28.33
2022-08-26T12:49:07.765Z,27.94
2022-08-26T12:50:07.773Z,27.94
2022-08-26T12:51:07.763Z,27.72
2022-08-26T12:52:07.757Z,27.72
2022-08-26T12:53:07.760Z,27.5
2022-08-26T12:54:07.773Z,27.5
2022-08-26T12:55:07.756Z,27.72
2022-08-26T12:56:07.771Z,26.72
2022-08-26T12:57:07.766Z,27.72
2022-08-26T12:58:07.860Z,28.11